sensor_id;sensor_type;location;lat;lon;timestamp;pressure;altitude;pressure_sealevel;temperature;humidity
75543;BME280;64129;53.508;10.476;2023-09-30T00:01:31;101635.81;;;13.21;97.26
75543;BME280;64129;53.508;10.476;2023-09-30T00:03:58;101634.44;;;13.43;93.83
75543;BME280;64129;53.508;10.476;2023-09-30T00:06:29;101643.94;;;13.12;96.92
75543;BME280;64129;53.508;10.476;2023-09-30T00:08:56;101635.88;;;13.15;97.93
75543;BME280;64129;53.508;10.476;2023-09-30T00:11:29;101644.97;;;13.05;98.23
75543;BME280;64129;53.508;10.476;2023-09-30T00:13:56;101652.06;;;13.06;97.26
75543;BME280;64129;53.508;10.476;2023-09-30T00:16:25;101644.06;;;13.06;98.20
75543;BME280;64129;53.508;10.476;2023-09-30T00:18:58;101640.47;;;13.07;97.51
75543;BME280;64129;53.508;10.476;2023-09-30T00:21:33;101649.38;;;13.06;98.73
75543;BME280;64129;53.508;10.476;2023-09-30T00:24:01;101654.13;;;12.92;99.70
75543;BME280;64129;53.508;10.476;2023-09-30T00:26:46;101663.03;;;12.91;100.00
75543;BME280;64129;53.508;10.476;2023-09-30T00:29:23;101663.75;;;12.99;98.65
75543;BME280;64129;53.508;10.476;2023-09-30T00:31:50;101664.81;;;12.90;99.69
75543;BME280;64129;53.508;10.476;2023-09-30T00:34:17;101666.72;;;12.82;100.00
75543;BME280;64129;53.508;10.476;2023-09-30T00:36:45;101665.81;;;12.85;100.00
75543;BME280;64129;53.508;10.476;2023-09-30T00:39:12;101670.03;;;12.96;99.31
75543;BME280;64129;53.508;10.476;2023-09-30T00:41:39;101672.91;;;12.86;100.00
75543;BME280;64129;53.508;10.476;2023-09-30T00:44:06;101671.19;;;12.80;100.00
75543;BME280;64129;53.508;10.476;2023-09-30T00:46:41;101668.78;;;12.66;100.00
75543;BME280;64129;53.508;10.476;2023-09-30T00:49:16;101667.59;;;12.82;99.04
75543;BME280;64129;53.508;10.476;2023-09-30T00:51:55;101669.28;;;12.90;98.74
75543;BME280;64129;53.508;10.476;2023-09-30T00:54:27;101676.66;;;12.72;100.00
75543;BME280;64129;53.508;10.476;2023-09-30T00:57:01;101676.59;;;12.75;99.97
75543;BME280;64129;53.508;10.476;2023-09-30T00:59:38;101670.19;;;12.87;98.54
75543;BME280;64129;53.508;10.476;2023-09-30T01:02:36;101676.78;;;12.66;100.00
75543;BME280;64129;53.508;10.476;2023-09-30T01:05:22;101678.47;;;12.70;100.00
75543;BME280;64129;53.508;10.476;2023-09-30T01:07:49;101675.88;;;12.67;100.00
75543;BME280;64129;53.508;10.476;2023-09-30T01:10:34;101681.38;;;12.58;100.00
75543;BME280;64129;53.508;10.476;2023-09-30T01:13:01;101683.22;;;12.55;100.00
75543;BME280;64129;53.508;10.476;2023-09-30T01:15:31;101684.03;;;12.58;100.00
75543;BME280;64129;53.508;10.476;2023-09-30T01:18:12;101680.41;;;12.62;100.00
75543;BME280;64129;53.508;10.476;2023-09-30T01:20:42;101684.91;;;12.59;99.17
75543;BME280;64129;53.508;10.476;2023-09-30T01:23:35;101683.97;;;12.61;100.00
75543;BME280;64129;53.508;10.476;2023-09-30T01:26:10;101673.38;;;12.58;99.59
75543;BME280;64129;53.508;10.476;2023-09-30T01:28:42;101682.22;;;12.60;100.00
75543;BME280;64129;53.508;10.476;2023-09-30T01:31:16;101687.66;;;12.54;100.00
75543;BME280;64129;53.508;10.476;2023-09-30T01:33:43;101681.59;;;12.43;100.00
75543;BME280;64129;53.508;10.476;2023-09-30T01:36:12;101678.88;;;12.49;100.00
75543;BME280;64129;53.508;10.476;2023-09-30T01:38:39;101679.72;;;12.48;100.00
75543;BME280;64129;53.508;10.476;2023-09-30T01:41:06;101686.59;;;12.64;98.33
75543;BME280;64129;53.508;10.476;2023-09-30T01:43:35;101693.06;;;12.48;100.00
75543;BME280;64129;53.508;10.476;2023-09-30T01:46:14;101689.41;;;12.55;98.76
75543;BME280;64129;53.508;10.476;2023-09-30T01:48:41;101695.81;;;12.43;100.00
75543;BME280;64129;53.508;10.476;2023-09-30T01:51:09;101698.44;;;12.45;99.28
75543;BME280;64129;53.508;10.476;2023-09-30T01:53:36;101701.13;;;12.43;100.00
75543;BME280;64129;53.508;10.476;2023-09-30T01:56:12;101695.72;;;12.49;98.88
75543;BME280;64129;53.508;10.476;2023-09-30T01:58:46;101694.78;;;12.52;98.64
75543;BME280;64129;53.508;10.476;2023-09-30T02:01:34;101710.16;;;12.35;99.76
75543;BME280;64129;53.508;10.476;2023-09-30T02:04:21;101705.91;;;12.22;100.00
75543;BME280;64129;53.508;10.476;2023-09-30T02:06:48;101711.16;;;12.28;100.00
75543;BME280;64129;53.508;10.476;2023-09-30T02:09:31;101711.06;;;12.34;99.41
75543;BME280;64129;53.508;10.476;2023-09-30T02:12:03;101710.25;;;12.29;100.00
75543;BME280;64129;53.508;10.476;2023-09-30T02:14:34;101711.25;;;12.22;100.00
75543;BME280;64129;53.508;10.476;2023-09-30T02:17:09;101708.31;;;12.38;98.57
75543;BME280;64129;53.508;10.476;2023-09-30T02:19:44;101717.25;;;12.36;100.00
75543;BME280;64129;53.508;10.476;2023-09-30T02:22:19;101717.44;;;12.24;100.00
75543;BME280;64129;53.508;10.476;2023-09-30T02:24:46;101715.50;;;12.33;99.45
75543;BME280;64129;53.508;10.476;2023-09-30T02:27:21;101718.38;;;12.20;100.00
75543;BME280;64129;53.508;10.476;2023-09-30T02:29:48;101716.47;;;12.28;100.00
75543;BME280;64129;53.508;10.476;2023-09-30T02:32:16;101717.38;;;12.27;100.00
75543;BME280;64129;53.508;10.476;2023-09-30T02:34:49;101719.38;;;12.11;100.00
75543;BME280;64129;53.508;10.476;2023-09-30T02:37:25;101718.44;;;12.16;100.00
75543;BME280;64129;53.508;10.476;2023-09-30T02:39:55;101713.09;;;12.16;100.00
75543;BME280;64129;53.508;10.476;2023-09-30T02:42:25;101718.44;;;12.16;100.00
75543;BME280;64129;53.508;10.476;2023-09-30T02:44:52;101708.94;;;11.97;100.00
75543;BME280;64129;53.508;10.476;2023-09-30T02:47:24;101722.09;;;12.06;100.00
75543;BME280;64129;53.508;10.476;2023-09-30T02:49:59;101720.19;;;12.17;100.00
75543;BME280;64129;53.508;10.476;2023-09-30T02:52:27;101718.34;;;12.23;99.46
75543;BME280;64129;53.508;10.476;2023-09-30T02:55:16;101714.94;;;12.11;99.97
75543;BME280;64129;53.508;10.476;2023-09-30T02:57:44;101711.59;;;11.97;100.00
75543;BME280;64129;53.508;10.476;2023-09-30T03:00:26;101711.72;;;11.88;100.00
75543;BME280;64129;53.508;10.476;2023-09-30T03:02:57;101718.94;;;11.80;100.00
75543;BME280;64129;53.508;10.476;2023-09-30T03:05:25;101718.91;;;11.77;100.00
75543;BME280;64129;53.508;10.476;2023-09-30T03:07:59;101728.63;;;11.85;100.00
75543;BME280;64129;53.508;10.476;2023-09-30T03:10:28;101730.31;;;11.91;100.00
75543;BME280;64129;53.508;10.476;2023-09-30T03:13:04;101737.53;;;11.81;100.00
75543;BME280;64129;53.508;10.476;2023-09-30T03:15:31;101727.78;;;11.80;100.00
75543;BME280;64129;53.508;10.476;2023-09-30T03:17:58;101730.47;;;11.80;100.00
75543;BME280;64129;53.508;10.476;2023-09-30T03:20:42;101727.84;;;11.73;100.00
75543;BME280;64129;53.508;10.476;2023-09-30T03:23:11;101724.25;;;11.80;100.00
75543;BME280;64129;53.508;10.476;2023-09-30T03:25:48;101727.72;;;11.85;100.00
75543;BME280;64129;53.508;10.476;2023-09-30T03:28:15;101732.19;;;11.83;100.00
75543;BME280;64129;53.508;10.476;2023-09-30T03:31:07;101746.53;;;11.67;100.00
75543;BME280;64129;53.508;10.476;2023-09-30T03:33:40;101749.22;;;11.67;100.00
75543;BME280;64129;53.508;10.476;2023-09-30T03:36:08;101742.84;;;11.77;100.00
75543;BME280;64129;53.508;10.476;2023-09-30T03:38:39;101746.44;;;11.76;100.00
75543;BME280;64129;53.508;10.476;2023-09-30T03:41:08;101731.34;;;11.75;100.00
75543;BME280;64129;53.508;10.476;2023-09-30T03:43:38;101738.44;;;11.79;100.00
75543;BME280;64129;53.508;10.476;2023-09-30T03:46:18;101734.03;;;11.73;100.00
75543;BME280;64129;53.508;10.476;2023-09-30T03:48:45;101740.25;;;11.74;100.00
75543;BME280;64129;53.508;10.476;2023-09-30T03:51:58;101731.34;;;11.81;100.00
75543;BME280;64129;53.508;10.476;2023-09-30T03:54:25;101739.44;;;11.67;100.00
75543;BME280;64129;53.508;10.476;2023-09-30T03:57:10;101733.34;;;11.57;100.00
75543;BME280;64129;53.508;10.476;2023-09-30T03:59:45;101741.25;;;11.64;100.00
75543;BME280;64129;53.508;10.476;2023-09-30T04:02:18;101735.22;;;11.49;100.00
75543;BME280;64129;53.508;10.476;2023-09-30T04:04:56;101740.34;;;11.65;100.00
75543;BME280;64129;53.508;10.476;2023-09-30T04:07:33;101735.06;;;11.63;100.00
75543;BME280;64129;53.508;10.476;2023-09-30T04:10:10;101742.25;;;11.56;100.00
75543;BME280;64129;53.508;10.476;2023-09-30T04:12:41;101737.03;;;11.44;100.00
75543;BME280;64129;53.508;10.476;2023-09-30T04:15:20;101742.25;;;11.56;100.00
75543;BME280;64129;53.508;10.476;2023-09-30T04:17:51;101737.63;;;11.69;100.00
75543;BME280;64129;53.508;10.476;2023-09-30T04:20:23;101745.75;;;11.59;100.00
75543;BME280;64129;53.508;10.476;2023-09-30T04:23:00;101743.19;;;11.52;100.00
75543;BME280;64129;53.508;10.476;2023-09-30T04:25:32;101740.50;;;11.52;100.00
75543;BME280;64129;53.508;10.476;2023-09-30T04:27:59;101741.31;;;11.59;100.00
75543;BME280;64129;53.508;10.476;2023-09-30T04:30:35;101737.78;;;11.59;100.00
75543;BME280;64129;53.508;10.476;2023-09-30T04:33:22;101739.47;;;11.66;100.00
75543;BME280;64129;53.508;10.476;2023-09-30T04:35:55;101742.19;;;11.60;100.00
75543;BME280;64129;53.508;10.476;2023-09-30T04:38:39;101747.53;;;11.58;100.00
75543;BME280;64129;53.508;10.476;2023-09-30T04:41:06;101759.19;;;11.48;100.00
75543;BME280;64129;53.508;10.476;2023-09-30T04:43:36;101761.88;;;11.46;100.00
75543;BME280;64129;53.508;10.476;2023-09-30T04:46:10;101760.00;;;11.54;100.00
75543;BME280;64129;53.508;10.476;2023-09-30T04:48:53;101761.72;;;11.59;100.00
75543;BME280;64129;53.508;10.476;2023-09-30T04:51:20;101770.72;;;11.44;100.00
75543;BME280;64129;53.508;10.476;2023-09-30T04:53:49;101772.50;;;11.48;100.00
75543;BME280;64129;53.508;10.476;2023-09-30T04:56:24;101774.25;;;11.50;100.00
75543;BME280;64129;53.508;10.476;2023-09-30T04:59:12;101779.47;;;11.56;100.00
75543;BME280;64129;53.508;10.476;2023-09-30T05:01:39;101782.94;;;11.65;100.00
75543;BME280;64129;53.508;10.476;2023-09-30T05:04:09;101777.72;;;11.55;100.00
75543;BME280;64129;53.508;10.476;2023-09-30T05:06:37;101785.72;;;11.54;100.00
75543;BME280;64129;53.508;10.476;2023-09-30T05:09:13;101784.69;;;11.66;100.00
75543;BME280;64129;53.508;10.476;2023-09-30T05:11:44;101785.75;;;11.52;100.00
75543;BME280;64129;53.508;10.476;2023-09-30T05:14:32;101783.16;;;11.46;100.00
75543;BME280;64129;53.508;10.476;2023-09-30T05:17:01;101768.88;;;11.53;100.00
75543;BME280;64129;53.508;10.476;2023-09-30T05:20:02;101766.94;;;11.68;100.00
75543;BME280;64129;53.508;10.476;2023-09-30T05:22:39;101763.53;;;11.56;100.00
75543;BME280;64129;53.508;10.476;2023-09-30T05:25:15;101778.63;;;11.54;100.00
75543;BME280;64129;53.508;10.476;2023-09-30T05:27:55;101793.69;;;11.55;100.00
75543;BME280;64129;53.508;10.476;2023-09-30T05:30:30;101788.19;;;11.71;100.00
75543;BME280;64129;53.508;10.476;2023-09-30T05:33:02;101792.75;;;11.60;100.00
75543;BME280;64129;53.508;10.476;2023-09-30T05:35:46;101786.59;;;11.54;100.00
75543;BME280;64129;53.508;10.476;2023-09-30T05:38:14;101785.75;;;11.52;100.00
75543;BME280;64129;53.508;10.476;2023-09-30T05:40:45;101780.22;;;11.68;100.00
75543;BME280;64129;53.508;10.476;2023-09-30T05:43:19;101784.69;;;11.66;100.00
75543;BME280;64129;53.508;10.476;2023-09-30T05:45:46;101787.28;;;11.72;100.00
75543;BME280;64129;53.508;10.476;2023-09-30T05:48:27;101788.22;;;11.68;100.00
75543;BME280;64129;53.508;10.476;2023-09-30T05:51:02;101787.38;;;11.64;100.00
75543;BME280;64129;53.508;10.476;2023-09-30T05:53:32;101806.03;;;11.63;100.00
75543;BME280;64129;53.508;10.476;2023-09-30T05:55:59;101807.72;;;11.70;100.00
75543;BME280;64129;53.508;10.476;2023-09-30T05:58:30;101821.91;;;11.69;100.00
75543;BME280;64129;53.508;10.476;2023-09-30T06:00:57;101813.00;;;11.73;100.00
75543;BME280;64129;53.508;10.476;2023-09-30T06:03:24;101813.06;;;11.67;100.00
75543;BME280;64129;53.508;10.476;2023-09-30T06:05:51;101806.75;;;11.81;100.00
75543;BME280;64129;53.508;10.476;2023-09-30T06:08:22;101813.84;;;11.76;100.00
75543;BME280;64129;53.508;10.476;2023-09-30T06:11:22;101825.41;;;11.72;100.00
75543;BME280;64129;53.508;10.476;2023-09-30T06:14:03;101829.81;;;11.76;100.00
75543;BME280;64129;53.508;10.476;2023-09-30T06:16:42;101820.91;;;11.85;100.00
75543;BME280;64129;53.508;10.476;2023-09-30T06:19:09;101831.50;;;11.90;100.00
75543;BME280;64129;53.508;10.476;2023-09-30T06:21:36;101834.09;;;11.94;100.00
75543;BME280;64129;53.508;10.476;2023-09-30T06:24:11;101843.03;;;11.89;100.00
75543;BME280;64129;53.508;10.476;2023-09-30T06:26:41;101834.00;;;12.02;100.00
75543;BME280;64129;53.508;10.476;2023-09-30T06:29:19;101841.00;;;12.10;100.00
75543;BME280;64129;53.508;10.476;2023-09-30T06:31:52;101849.03;;;12.06;100.00
75543;BME280;64129;53.508;10.476;2023-09-30T06:34:21;101846.34;;;12.07;100.00
75543;BME280;64129;53.508;10.476;2023-09-30T06:37:05;101849.00;;;12.09;100.00
75543;BME280;64129;53.508;10.476;2023-09-30T06:39:39;101843.72;;;12.04;100.00
75543;BME280;64129;53.508;10.476;2023-09-30T06:42:07;101854.34;;;12.07;100.00
75543;BME280;64129;53.508;10.476;2023-09-30T06:44:42;101848.06;;;12.13;100.00
75543;BME280;64129;53.508;10.476;2023-09-30T06:47:28;101859.69;;;12.06;100.00
75543;BME280;64129;53.508;10.476;2023-09-30T06:50:12;101866.69;;;12.16;100.00
75543;BME280;64129;53.508;10.476;2023-09-30T06:52:46;101869.28;;;12.21;100.00
75543;BME280;64129;53.508;10.476;2023-09-30T06:55:14;101871.13;;;12.12;100.00
75543;BME280;64129;53.508;10.476;2023-09-30T06:57:48;101873.69;;;12.25;100.00
75543;BME280;64129;53.508;10.476;2023-09-30T07:00:33;101881.59;;;12.31;100.00
75543;BME280;64129;53.508;10.476;2023-09-30T07:03:02;101879.63;;;12.45;100.00
75543;BME280;64129;53.508;10.476;2023-09-30T07:05:31;101881.25;;;12.58;100.00
75543;BME280;64129;53.508;10.476;2023-09-30T07:08:09;101878.59;;;12.57;100.00
75543;BME280;64129;53.508;10.476;2023-09-30T07:10:40;101890.13;;;12.57;100.00
75543;BME280;64129;53.508;10.476;2023-09-30T07:13:07;101887.28;;;12.71;100.00
75543;BME280;64129;53.508;10.476;2023-09-30T07:15:34;101889.75;;;12.85;100.00
75543;BME280;64129;53.508;10.476;2023-09-30T07:18:08;101887.09;;;12.83;100.00
75543;BME280;64129;53.508;10.476;2023-09-30T07:20:39;101891.53;;;12.82;100.00
75543;BME280;64129;53.508;10.476;2023-09-30T07:23:12;101893.88;;;13.05;100.00
75543;BME280;64129;53.508;10.476;2023-09-30T07:25:46;101891.06;;;13.19;100.00
75543;BME280;64129;53.508;10.476;2023-09-30T07:28:13;101897.19;;;13.24;100.00
75543;BME280;64129;53.508;10.476;2023-09-30T07:30:44;101898.69;;;13.40;100.00
75543;BME280;64129;53.508;10.476;2023-09-30T07:33:13;101891.59;;;13.39;99.92
75543;BME280;64129;53.508;10.476;2023-09-30T07:35:40;101897.78;;;13.41;100.00
75543;BME280;64129;53.508;10.476;2023-09-30T07:38:14;101892.28;;;13.51;99.54
75543;BME280;64129;53.508;10.476;2023-09-30T07:41:15;101902.84;;;13.58;99.68
75543;BME280;64129;53.508;10.476;2023-09-30T07:44:02;101915.19;;;13.64;99.25
75543;BME280;64129;53.508;10.476;2023-09-30T07:46:36;101915.72;;;13.84;98.65
75543;BME280;64129;53.508;10.476;2023-09-30T07:49:20;101913.09;;;13.81;99.38
75543;BME280;64129;53.508;10.476;2023-09-30T07:51:47;101914.41;;;14.07;96.77
75543;BME280;64129;53.508;10.476;2023-09-30T07:54:18;101918.00;;;14.05;98.10
75543;BME280;64129;53.508;10.476;2023-09-30T07:56:50;101919.94;;;13.97;97.29
75543;BME280;64129;53.508;10.476;2023-09-30T07:59:17;101914.47;;;14.03;97.26
75543;BME280;64129;53.508;10.476;2023-09-30T08:01:52;101905.13;;;14.27;96.75
75543;BME280;64129;53.508;10.476;2023-09-30T08:04:21;101910.00;;;14.50;96.08
75543;BME280;64129;53.508;10.476;2023-09-30T08:06:58;101911.47;;;14.65;96.82
75543;BME280;64129;53.508;10.476;2023-09-30T08:09:25;101927.28;;;14.76;95.48
75543;BME280;64129;53.508;10.476;2023-09-30T08:12:03;101927.28;;;14.76;94.67
75543;BME280;64129;53.508;10.476;2023-09-30T08:14:34;101923.69;;;14.77;94.58
75543;BME280;64129;53.508;10.476;2023-09-30T08:17:01;101927.81;;;14.93;94.60
75543;BME280;64129;53.508;10.476;2023-09-30T08:19:36;101924.06;;;15.00;92.69
75543;BME280;64129;53.508;10.476;2023-09-30T08:22:06;101920.28;;;15.09;93.21
75543;BME280;64129;53.508;10.476;2023-09-30T08:24:33;101924.44;;;15.22;93.54
75543;BME280;64129;53.508;10.476;2023-09-30T08:27:21;101930.25;;;15.41;91.31
75543;BME280;64129;53.508;10.476;2023-09-30T08:29:50;101945.53;;;15.73;91.99
75543;BME280;64129;53.508;10.476;2023-09-30T08:32:23;101936.34;;;15.83;90.04
75543;BME280;64129;53.508;10.476;2023-09-30T08:35:07;101947.84;;;15.86;90.53
75543;BME280;64129;53.508;10.476;2023-09-30T08:37:34;101948.53;;;15.95;89.89
75543;BME280;64129;53.508;10.476;2023-09-30T08:40:06;101953.78;;;15.99;88.34
75543;BME280;64129;53.508;10.476;2023-09-30T08:42:52;101952.81;;;16.02;87.44
75543;BME280;64129;53.508;10.476;2023-09-30T08:45:35;101952.81;;;16.02;86.38
75543;BME280;64129;53.508;10.476;2023-09-30T08:48:13;101948.22;;;16.39;90.23
75543;BME280;64129;53.508;10.476;2023-09-30T08:50:43;101949.22;;;16.65;89.24
75543;BME280;64129;53.508;10.476;2023-09-30T08:53:21;101948.25;;;16.70;87.16
75543;BME280;64129;53.508;10.476;2023-09-30T08:56:05;101951.94;;;16.66;85.98
75543;BME280;64129;53.508;10.476;2023-09-30T08:59:01;101960.50;;;16.46;84.53
75543;BME280;64129;53.508;10.476;2023-09-30T09:01:36;101941.72;;;16.79;83.66
75543;BME280;64129;53.508;10.476;2023-09-30T09:04:07;101948.66;;;16.86;84.01
75543;BME280;64129;53.508;10.476;2023-09-30T09:06:36;101949.22;;;16.68;83.92
75543;BME280;64129;53.508;10.476;2023-09-30T09:09:14;101955.38;;;16.99;83.40
75543;BME280;64129;53.508;10.476;2023-09-30T09:11:50;101959.44;;;16.84;81.25
75543;BME280;64129;53.508;10.476;2023-09-30T09:14:45;101963.88;;;16.86;82.13
75543;BME280;64129;53.508;10.476;2023-09-30T09:17:16;101964.00;;;16.81;82.33
75543;BME280;64129;53.508;10.476;2023-09-30T09:19:59;101962.88;;;17.18;81.77
75543;BME280;64129;53.508;10.476;2023-09-30T09:22:46;101968.31;;;17.44;82.73
75543;BME280;64129;53.508;10.476;2023-09-30T09:25:14;101962.69;;;17.24;81.61
75543;BME280;64129;53.508;10.476;2023-09-30T09:27:54;101968.56;;;17.36;80.72
75543;BME280;64129;53.508;10.476;2023-09-30T09:30:30;101976.88;;;17.55;79.32
75543;BME280;64129;53.508;10.476;2023-09-30T09:33:11;101979.00;;;17.45;79.47
75543;BME280;64129;53.508;10.476;2023-09-30T09:35:39;101972.97;;;17.65;79.92
75543;BME280;64129;53.508;10.476;2023-09-30T09:38:18;101975.41;;;17.74;77.00
75543;BME280;64129;53.508;10.476;2023-09-30T09:40:59;101974.88;;;17.90;79.30
75543;BME280;64129;53.508;10.476;2023-09-30T09:43:26;101969.81;;;18.07;76.80
75543;BME280;64129;53.508;10.476;2023-09-30T09:45:58;101966.16;;;18.33;77.26
75543;BME280;64129;53.508;10.476;2023-09-30T09:48:28;101964.75;;;18.23;75.57
75543;BME280;64129;53.508;10.476;2023-09-30T09:50:59;101972.41;;;18.83;75.62
75543;BME280;64129;53.508;10.476;2023-09-30T09:53:43;101975.16;;;18.32;76.77
75543;BME280;64129;53.508;10.476;2023-09-30T09:56:15;101970.72;;;18.56;74.01
75543;BME280;64129;53.508;10.476;2023-09-30T09:58:44;101979.19;;;18.93;73.07
75543;BME280;64129;53.508;10.476;2023-09-30T10:01:35;101981.41;;;18.82;73.13
75543;BME280;64129;53.508;10.476;2023-09-30T10:04:02;101960.59;;;18.87;71.85
75543;BME280;64129;53.508;10.476;2023-09-30T10:06:40;101970.97;;;18.73;72.81
75543;BME280;64129;53.508;10.476;2023-09-30T10:09:21;101960.47;;;18.90;71.43
75543;BME280;64129;53.508;10.476;2023-09-30T10:11:49;101966.00;;;19.54;74.92
75543;BME280;64129;53.508;10.476;2023-09-30T10:14:41;101962.78;;;18.99;73.54
75543;BME280;64129;53.508;10.476;2023-09-30T10:17:10;101967.25;;;19.68;70.52
75543;BME280;64129;53.508;10.476;2023-09-30T10:20:05;101967.75;;;19.55;69.87
75543;BME280;64129;53.508;10.476;2023-09-30T10:22:36;101955.84;;;20.23;68.76
75543;BME280;64129;53.508;10.476;2023-09-30T10:25:35;101955.97;;;20.20;67.97
75543;BME280;64129;53.508;10.476;2023-09-30T10:31:24;101967.69;;;19.99;67.05
75543;BME280;64129;53.508;10.476;2023-09-30T10:36:43;101969.75;;;19.72;70.14
75543;BME280;64129;53.508;10.476;2023-09-30T10:39:52;101979.63;;;19.05;67.20
75543;BME280;64129;53.508;10.476;2023-09-30T10:42:09;101979.38;;;19.34;68.67
75543;BME280;64129;53.508;10.476;2023-09-30T10:44:48;101977.28;;;20.06;69.66
75543;BME280;64129;53.508;10.476;2023-09-30T10:49:55;101984.97;;;19.06;67.75
75543;BME280;64129;53.508;10.476;2023-09-30T10:52:25;101992.66;;;19.17;66.86
75543;BME280;64129;53.508;10.476;2023-09-30T10:54:52;101991.47;;;19.24;64.07
75543;BME280;64129;53.508;10.476;2023-09-30T10:57:35;101999.44;;;19.49;65.74
75543;BME280;64129;53.508;10.476;2023-09-30T11:00:16;101992.97;;;19.54;64.03
75543;BME280;64129;53.508;10.476;2023-09-30T11:02:50;101996.97;;;19.66;66.75
75543;BME280;64129;53.508;10.476;2023-09-30T11:05:25;101992.31;;;19.70;65.58
75543;BME280;64129;53.508;10.476;2023-09-30T11:08:10;101991.16;;;19.97;62.08
75543;BME280;64129;53.508;10.476;2023-09-30T11:10:37;101980.94;;;20.66;60.52
75543;BME280;64129;53.508;10.476;2023-09-30T11:13:15;101990.63;;;20.51;59.20
75543;BME280;64129;53.508;10.476;2023-09-30T11:15:43;101984.16;;;20.74;61.29
75543;BME280;64129;53.508;10.476;2023-09-30T11:18:21;101985.50;;;20.84;59.76
75543;BME280;64129;53.508;10.476;2023-09-30T11:21:15;101981.22;;;20.60;60.99
75543;BME280;64129;53.508;10.476;2023-09-30T11:23:42;101979.84;;;20.70;61.41
75543;BME280;64129;53.508;10.476;2023-09-30T11:26:12;101994.19;;;20.52;60.38
75543;BME280;64129;53.508;10.476;2023-09-30T11:28:49;101988.63;;;20.14;59.33
75543;BME280;64129;53.508;10.476;2023-09-30T11:31:19;101974.84;;;19.80;59.57
75543;BME280;64129;53.508;10.476;2023-09-30T11:33:55;101969.38;;;19.81;59.55
75543;BME280;64129;53.508;10.476;2023-09-30T11:36:38;101974.97;;;20.38;57.96
75543;BME280;64129;53.508;10.476;2023-09-30T11:39:06;101964.47;;;21.10;58.25
75543;BME280;64129;53.508;10.476;2023-09-30T11:41:42;101960.13;;;21.26;56.17
75543;BME280;64129;53.508;10.476;2023-09-30T11:44:14;101969.69;;;21.51;55.73
75543;BME280;64129;53.508;10.476;2023-09-30T11:46:58;101970.72;;;21.84;56.76
75543;BME280;64129;53.508;10.476;2023-09-30T11:49:45;101966.41;;;21.80;52.83
75543;BME280;64129;53.508;10.476;2023-09-30T11:52:27;101966.75;;;21.74;53.10
75543;BME280;64129;53.508;10.476;2023-09-30T11:54:57;101976.50;;;22.30;53.02
75543;BME280;64129;53.508;10.476;2023-09-30T11:57:30;101976.00;;;21.87;54.25
75543;BME280;64129;53.508;10.476;2023-09-30T12:00:04;101965.84;;;22.09;53.59
75543;BME280;64129;53.508;10.476;2023-09-30T12:02:44;101972.31;;;21.71;53.33
75543;BME280;64129;53.508;10.476;2023-09-30T12:05:18;101961.81;;;21.65;50.86
75543;BME280;64129;53.508;10.476;2023-09-30T12:07:58;101959.91;;;22.01;49.79
75543;BME280;64129;53.508;10.476;2023-09-30T12:10:35;101958.59;;;22.10;52.92
75543;BME280;64129;53.508;10.476;2023-09-30T12:13:04;101959.81;;;22.88;49.48
75543;BME280;64129;53.508;10.476;2023-09-30T12:15:31;101964.94;;;22.77;48.64
75543;BME280;64129;53.508;10.476;2023-09-30T12:18:01;101957.25;;;22.69;50.83
75543;BME280;64129;53.508;10.476;2023-09-30T12:20:35;101959.06;;;23.17;48.61
75543;BME280;64129;53.508;10.476;2023-09-30T12:23:08;101962.22;;;22.94;49.67
75543;BME280;64129;53.508;10.476;2023-09-30T12:25:38;101951.81;;;22.01;51.31
75543;BME280;64129;53.508;10.476;2023-09-30T12:28:11;101943.25;;;22.77;49.71
75543;BME280;64129;53.508;10.476;2023-09-30T12:30:41;101939.47;;;23.12;50.87
75543;BME280;64129;53.508;10.476;2023-09-30T12:33:09;101935.00;;;23.43;49.40
75543;BME280;64129;53.508;10.476;2023-09-30T12:35:37;101946.03;;;22.92;48.52
75543;BME280;64129;53.508;10.476;2023-09-30T12:38:04;101940.06;;;23.49;47.89
75543;BME280;64129;53.508;10.476;2023-09-30T12:40:31;101943.34;;;22.59;47.30
75543;BME280;64129;53.508;10.476;2023-09-30T12:43:12;101943.69;;;22.01;49.11
75543;BME280;64129;53.508;10.476;2023-09-30T12:45:39;101939.72;;;23.55;47.70
75543;BME280;64129;53.508;10.476;2023-09-30T12:48:09;101940.66;;;23.54;46.30
75543;BME280;64129;53.508;10.476;2023-09-30T12:50:36;101940.72;;;23.07;47.24
75543;BME280;64129;53.508;10.476;2023-09-30T12:53:16;101931.09;;;22.35;49.18
75543;BME280;64129;53.508;10.476;2023-09-30T12:55:45;101936.34;;;22.55;49.00
75543;BME280;64129;53.508;10.476;2023-09-30T12:58:12;101947.69;;;22.29;48.58
75543;BME280;64129;53.508;10.476;2023-09-30T13:00:42;101935.91;;;22.63;47.94
75543;BME280;64129;53.508;10.476;2023-09-30T13:03:18;101933.38;;;23.24;46.76
75543;BME280;64129;53.508;10.476;2023-09-30T13:06:02;101934.03;;;23.75;47.78
75543;BME280;64129;53.508;10.476;2023-09-30T13:08:37;101931.91;;;22.20;48.02
75543;BME280;64129;53.508;10.476;2023-09-30T13:11:11;101928.41;;;21.66;48.54
75543;BME280;64129;53.508;10.476;2023-09-30T13:13:54;101942.59;;;22.89;47.49
75543;BME280;64129;53.508;10.476;2023-09-30T13:16:35;101927.97;;;23.24;46.00
75543;BME280;64129;53.508;10.476;2023-09-30T13:19:03;101923.38;;;23.86;47.33
75543;BME280;64129;53.508;10.476;2023-09-30T13:21:30;101925.47;;;23.67;45.96